VTD734 UWLL-UWLL
Flight info
| Callsign | VTD734 |
|---|---|
| Flight time | 1h 28m |
| Altitude | 2500 |
| Route | / |
| Aircraft | DA40/L-SDGRWY/C |
Departure
| Time | 2026-04-24 12:38 |
|---|---|
| Airport | Ulyanovsk Baratayevka Airport (UWLL) |
Arrival
| Time | 2026-04-24 14:06 |
|---|---|
| Airport | Ulyanovsk Baratayevka Airport (UWLL) |
| Time | Latitude | Longitude | Altitude | Speed | Heading |
|---|---|---|---|---|---|
| 2026-04-24 12:06 | 54.27250 | 48.23615 | 399 ft | 0 kts | 122° |
| 2026-04-24 12:25 | 54.27250 | 48.23616 | 426 ft | 0 kts | 122° |
| 2026-04-24 12:26 | 54.27244 | 48.23638 | 399 ft | 3 kts | 91° |
| 2026-04-24 12:26 | 54.27266 | 48.23668 | 399 ft | 7 kts | 32° |
| 2026-04-24 12:26 | 54.27323 | 48.23730 | 399 ft | 10 kts | 33° |
| 2026-04-24 12:26 | 54.27384 | 48.23795 | 399 ft | 10 kts | 32° |
| 2026-04-24 12:27 | 54.27443 | 48.23858 | 399 ft | 10 kts | 32° |
| 2026-04-24 12:27 | 54.27501 | 48.23921 | 399 ft | 10 kts | 32° |
| 2026-04-24 12:27 | 54.27558 | 48.23981 | 399 ft | 9 kts | 21° |
| 2026-04-24 12:27 | 54.27601 | 48.23943 | 399 ft | 7 kts | 301° |
| 2026-04-24 12:28 | 54.27626 | 48.23873 | 399 ft | 8 kts | 302° |
| 2026-04-24 12:28 | 54.27661 | 48.23778 | 399 ft | 11 kts | 301° |
| 2026-04-24 12:28 | 54.27683 | 48.23644 | 399 ft | 13 kts | 261° |
| 2026-04-24 12:28 | 54.27667 | 48.23511 | 399 ft | 6 kts | 256° |
| 2026-04-24 12:29 | 54.27664 | 48.23495 | 399 ft | 2 kts | 256° |
| 2026-04-24 12:29 | 54.27664 | 48.23489 | 399 ft | 0 kts | 256° |
| 2026-04-24 12:35 | 54.27657 | 48.23443 | 399 ft | 8 kts | 257° |
| 2026-04-24 12:36 | 54.27646 | 48.23357 | 400 ft | 8 kts | 257° |
| 2026-04-24 12:36 | 54.27630 | 48.23238 | 402 ft | 8 kts | 255° |
| 2026-04-24 12:36 | 54.27607 | 48.23192 | 402 ft | 0 kts | 212° |
| 2026-04-24 12:37 | 54.27482 | 48.23056 | 401 ft | 46 kts | 211° |
| 2026-04-24 12:37 | 54.27125 | 48.22675 | 474 ft | 67 kts | 204° |
| 2026-04-24 12:37 | 54.26728 | 48.22227 | 640 ft | 70 kts | 206° |
| 2026-04-24 12:38 | 54.26315 | 48.21784 | 803 ft | 73 kts | 205° |
| 2026-04-24 12:38 | 54.25881 | 48.21282 | 944 ft | 75 kts | 209° |
| 2026-04-24 12:38 | 54.25498 | 48.20642 | 1118 ft | 83 kts | 236° |
| 2026-04-24 12:39 | 54.26563 | 48.17587 | 1595 ft | 129 kts | 324° |
| 2026-04-24 12:39 | 54.27453 | 48.17315 | 1691 ft | 133 kts | 15° |
| 2026-04-24 12:39 | 54.28278 | 48.17932 | 1868 ft | 125 kts | 38° |
| 2026-04-24 12:40 | 54.28995 | 48.18728 | 2047 ft | 121 kts | 43° |
| 2026-04-24 12:40 | 54.29660 | 48.19529 | 2223 ft | 115 kts | 45° |
| 2026-04-24 12:40 | 54.30311 | 48.20318 | 2365 ft | 114 kts | 44° |
| 2026-04-24 12:40 | 54.30981 | 48.21084 | 2499 ft | 120 kts | 42° |
| 2026-04-24 12:41 | 54.31690 | 48.21869 | 2565 ft | 120 kts | 41° |
| 2026-04-24 12:41 | 54.32417 | 48.22581 | 2580 ft | 122 kts | 33° |
| 2026-04-24 12:41 | 54.33274 | 48.22885 | 2542 ft | 133 kts | 2° |
| 2026-04-24 12:41 | 54.34183 | 48.22531 | 2510 ft | 135 kts | 339° |
| 2026-04-24 12:42 | 54.34910 | 48.21555 | 2479 ft | 133 kts | 303° |
| 2026-04-24 12:42 | 54.35399 | 48.20250 | 2468 ft | 128 kts | 288° |
| 2026-04-24 12:42 | 54.35739 | 48.18866 | 2470 ft | 126 kts | 284° |
| 2026-04-24 12:42 | 54.36056 | 48.17488 | 2466 ft | 123 kts | 280° |
| 2026-04-24 12:43 | 54.36345 | 48.16098 | 2471 ft | 124 kts | 280° |
| 2026-04-24 12:43 | 54.36535 | 48.15173 | 2468 ft | 125 kts | 280° |
| 2026-04-24 12:43 | 54.36915 | 48.13294 | 2475 ft | 125 kts | 280° |
| 2026-04-24 12:43 | 54.37198 | 48.11887 | 2471 ft | 125 kts | 280° |
| 2026-04-24 12:44 | 54.37477 | 48.10483 | 2476 ft | 124 kts | 280° |
| 2026-04-24 12:44 | 54.37752 | 48.09088 | 2471 ft | 123 kts | 280° |
| 2026-04-24 12:44 | 54.37934 | 48.08177 | 2470 ft | 121 kts | 280° |
| 2026-04-24 12:44 | 54.38281 | 48.06397 | 2464 ft | 116 kts | 280° |
| 2026-04-24 12:45 | 54.38453 | 48.05512 | 2467 ft | 116 kts | 279° |
| 2026-04-24 12:45 | 54.38806 | 48.03759 | 2472 ft | 119 kts | 280° |
| 2026-04-24 12:45 | 54.39084 | 48.02416 | 2473 ft | 120 kts | 280° |
| 2026-04-24 12:45 | 54.39353 | 48.01042 | 2479 ft | 122 kts | 280° |
| 2026-04-24 12:46 | 54.39612 | 47.99649 | 2480 ft | 123 kts | 280° |
| 2026-04-24 12:46 | 54.39872 | 47.98249 | 2481 ft | 123 kts | 279° |
| 2026-04-24 12:46 | 54.40052 | 47.96811 | 2475 ft | 124 kts | 272° |
| 2026-04-24 12:46 | 54.40135 | 47.95823 | 2476 ft | 123 kts | 265° |
| 2026-04-24 12:47 | 54.40231 | 47.93886 | 2482 ft | 125 kts | 265° |
| 2026-04-24 12:47 | 54.40279 | 47.92896 | 2482 ft | 127 kts | 265° |
| 2026-04-24 12:47 | 54.40341 | 47.90879 | 2475 ft | 125 kts | 259° |
| 2026-04-24 12:47 | 54.40331 | 47.89898 | 2472 ft | 123 kts | 259° |
| 2026-04-24 12:48 | 54.40303 | 47.87954 | 2471 ft | 120 kts | 259° |
| 2026-04-24 12:48 | 54.40290 | 47.87006 | 2477 ft | 120 kts | 259° |
| 2026-04-24 12:48 | 54.40267 | 47.85570 | 2477 ft | 121 kts | 259° |
| 2026-04-24 12:48 | 54.40307 | 47.84103 | 2480 ft | 126 kts | 268° |
| 2026-04-24 12:49 | 54.40420 | 47.82608 | 2475 ft | 127 kts | 268° |
| 2026-04-24 12:49 | 54.40570 | 47.81106 | 2472 ft | 130 kts | 279° |
| 2026-04-24 12:49 | 54.40864 | 47.79644 | 2474 ft | 129 kts | 281° |
| 2026-04-24 12:49 | 54.41158 | 47.78203 | 2474 ft | 127 kts | 281° |
| 2026-04-24 12:50 | 54.41436 | 47.76773 | 2472 ft | 126 kts | 281° |
| 2026-04-24 12:50 | 54.41724 | 47.75356 | 2473 ft | 126 kts | 281° |
| 2026-04-24 12:50 | 54.42018 | 47.73932 | 2477 ft | 128 kts | 282° |
| 2026-04-24 12:50 | 54.42303 | 47.72480 | 2475 ft | 129 kts | 281° |
| 2026-04-24 12:51 | 54.42586 | 47.71019 | 2474 ft | 129 kts | 281° |
| 2026-04-24 12:51 | 54.42884 | 47.69556 | 2478 ft | 130 kts | 281° |
| 2026-04-24 12:51 | 54.43171 | 47.68076 | 2468 ft | 132 kts | 281° |
| 2026-04-24 12:51 | 54.43450 | 47.66593 | 2464 ft | 129 kts | 281° |
| 2026-04-24 12:52 | 54.43733 | 47.65130 | 2467 ft | 129 kts | 281° |
| 2026-04-24 12:52 | 54.44009 | 47.63645 | 2470 ft | 132 kts | 281° |
| 2026-04-24 12:52 | 54.44292 | 47.62142 | 2469 ft | 133 kts | 281° |
| 2026-04-24 12:52 | 54.44588 | 47.60626 | 2472 ft | 134 kts | 281° |
| 2026-04-24 12:53 | 54.44888 | 47.59109 | 2471 ft | 133 kts | 281° |
| 2026-04-24 12:53 | 54.45187 | 47.57620 | 2468 ft | 131 kts | 281° |
| 2026-04-24 12:53 | 54.45475 | 47.56139 | 2467 ft | 130 kts | 281° |
| 2026-04-24 12:53 | 54.45760 | 47.54665 | 2467 ft | 130 kts | 282° |
| 2026-04-24 12:54 | 54.46056 | 47.53210 | 2468 ft | 129 kts | 282° |
| 2026-04-24 12:54 | 54.46357 | 47.51752 | 2471 ft | 130 kts | 282° |
| 2026-04-24 12:54 | 54.46663 | 47.50279 | 2464 ft | 132 kts | 282° |
| 2026-04-24 12:54 | 54.46973 | 47.48783 | 2463 ft | 134 kts | 282° |
| 2026-04-24 12:55 | 54.47279 | 47.47269 | 2464 ft | 135 kts | 282° |
| 2026-04-24 12:55 | 54.47589 | 47.45748 | 2462 ft | 135 kts | 283° |
| 2026-04-24 12:55 | 54.47923 | 47.44250 | 2460 ft | 133 kts | 284° |
| 2026-04-24 12:55 | 54.48258 | 47.42771 | 2456 ft | 132 kts | 284° |
| 2026-04-24 12:56 | 54.48595 | 47.41334 | 2461 ft | 131 kts | 284° |
| 2026-04-24 12:56 | 54.48935 | 47.39879 | 2458 ft | 131 kts | 284° |
| 2026-04-24 12:56 | 54.49262 | 47.38417 | 2455 ft | 131 kts | 284° |
| 2026-04-24 12:56 | 54.49587 | 47.36959 | 2451 ft | 129 kts | 284° |
| 2026-04-24 12:57 | 54.49909 | 47.35525 | 2455 ft | 128 kts | 284° |
| 2026-04-24 12:57 | 54.50235 | 47.34101 | 2455 ft | 129 kts | 284° |
| 2026-04-24 12:57 | 54.50572 | 47.32666 | 2460 ft | 130 kts | 284° |
| 2026-04-24 12:57 | 54.50906 | 47.31211 | 2459 ft | 132 kts | 284° |
| 2026-04-24 12:58 | 54.51238 | 47.29739 | 2456 ft | 132 kts | 284° |
| 2026-04-24 12:58 | 54.51569 | 47.28270 | 2452 ft | 131 kts | 284° |
| 2026-04-24 12:58 | 54.51893 | 47.26819 | 2452 ft | 128 kts | 284° |
| 2026-04-24 12:58 | 54.52210 | 47.25395 | 2453 ft | 127 kts | 284° |
| 2026-04-24 12:59 | 54.52472 | 47.23961 | 2451 ft | 125 kts | 279° |
| 2026-04-24 12:59 | 54.52720 | 47.22517 | 2454 ft | 126 kts | 279° |
| 2026-04-24 12:59 | 54.52971 | 47.21060 | 2456 ft | 127 kts | 279° |
| 2026-04-24 12:59 | 54.53228 | 47.19590 | 2456 ft | 129 kts | 279° |
| 2026-04-24 13:00 | 54.53493 | 47.18114 | 2454 ft | 129 kts | 279° |
| 2026-04-24 13:00 | 54.53763 | 47.16626 | 2451 ft | 131 kts | 279° |
| 2026-04-24 13:00 | 54.54035 | 47.15120 | 2451 ft | 131 kts | 279° |
| 2026-04-24 13:00 | 54.54299 | 47.13618 | 2448 ft | 131 kts | 279° |
| 2026-04-24 13:01 | 54.54528 | 47.12093 | 2444 ft | 130 kts | 267° |
| 2026-04-24 13:01 | 54.54447 | 47.10609 | 2434 ft | 120 kts | 236° |
| 2026-04-24 13:01 | 54.53891 | 47.09745 | 2437 ft | 103 kts | 190° |
| 2026-04-24 13:01 | 54.53220 | 47.09842 | 2442 ft | 96 kts | 164° |
| 2026-04-24 13:02 | 54.52581 | 47.10147 | 2438 ft | 94 kts | 163° |
| 2026-04-24 13:02 | 54.51954 | 47.10453 | 2446 ft | 93 kts | 163° |
| 2026-04-24 13:02 | 54.51345 | 47.10764 | 2459 ft | 92 kts | 162° |
| 2026-04-24 13:02 | 54.50725 | 47.11087 | 2444 ft | 94 kts | 162° |
| 2026-04-24 13:03 | 54.50097 | 47.11401 | 2437 ft | 93 kts | 163° |
| 2026-04-24 13:03 | 54.49471 | 47.11716 | 2436 ft | 94 kts | 163° |
| 2026-04-24 13:03 | 54.48844 | 47.12032 | 2444 ft | 92 kts | 163° |
| 2026-04-24 13:03 | 54.48340 | 47.12281 | 2430 ft | 59 kts | 163° |
| 2026-04-24 13:04 | 54.47970 | 47.12449 | 2217 ft | 58 kts | 165° |
| 2026-04-24 13:04 | 54.47586 | 47.12684 | 1974 ft | 60 kts | 156° |
| 2026-04-24 13:04 | 54.47211 | 47.12982 | 1756 ft | 59 kts | 154° |
| 2026-04-24 13:04 | 54.46883 | 47.13442 | 1510 ft | 66 kts | 124° |
| 2026-04-24 13:05 | 54.46817 | 47.14309 | 1158 ft | 83 kts | 99° |
| 2026-04-24 13:05 | 54.46820 | 47.15297 | 941 ft | 78 kts | 98° |
| 2026-04-24 13:05 | 54.46793 | 47.16237 | 987 ft | 79 kts | 116° |
| 2026-04-24 13:05 | 54.46401 | 47.16797 | 1192 ft | 77 kts | 165° |
| 2026-04-24 13:06 | 54.45882 | 47.17055 | 1450 ft | 77 kts | 161° |
| 2026-04-24 13:06 | 54.45391 | 47.17299 | 1733 ft | 71 kts | 162° |
| 2026-04-24 13:06 | 54.44921 | 47.17509 | 1934 ft | 70 kts | 162° |
| 2026-04-24 13:06 | 54.44444 | 47.17709 | 2112 ft | 71 kts | 164° |
| 2026-04-24 13:07 | 54.43967 | 47.17922 | 2318 ft | 69 kts | 161° |
| 2026-04-24 13:07 | 54.43492 | 47.18166 | 2455 ft | 76 kts | 160° |
| 2026-04-24 13:07 | 54.42957 | 47.18436 | 2464 ft | 86 kts | 163° |
| 2026-04-24 13:07 | 54.42365 | 47.18719 | 2449 ft | 90 kts | 163° |
| 2026-04-24 13:08 | 54.41740 | 47.18909 | 2446 ft | 91 kts | 167° |
| 2026-04-24 13:08 | 54.41131 | 47.19187 | 2448 ft | 91 kts | 163° |
| 2026-04-24 13:08 | 54.40522 | 47.19483 | 2443 ft | 91 kts | 163° |
| 2026-04-24 13:09 | 54.39317 | 47.20065 | 2447 ft | 89 kts | 163° |
| 2026-04-24 13:09 | 54.38716 | 47.20356 | 2450 ft | 91 kts | 163° |
| 2026-04-24 13:09 | 54.38100 | 47.20655 | 2450 ft | 93 kts | 163° |
| 2026-04-24 13:09 | 54.37473 | 47.20961 | 2444 ft | 93 kts | 163° |
| 2026-04-24 13:10 | 54.36854 | 47.21260 | 2442 ft | 92 kts | 163° |
| 2026-04-24 13:10 | 54.36247 | 47.21555 | 2442 ft | 90 kts | 163° |
| 2026-04-24 13:10 | 54.35652 | 47.21844 | 2442 ft | 88 kts | 163° |
| 2026-04-24 13:10 | 54.35062 | 47.22129 | 2441 ft | 87 kts | 163° |
| 2026-04-24 13:11 | 54.34475 | 47.22414 | 2447 ft | 88 kts | 162° |
| 2026-04-24 13:11 | 54.33882 | 47.22702 | 2448 ft | 90 kts | 163° |
| 2026-04-24 13:11 | 54.33274 | 47.22997 | 2446 ft | 91 kts | 163° |
| 2026-04-24 13:11 | 54.32665 | 47.23295 | 2443 ft | 91 kts | 163° |
| 2026-04-24 13:12 | 54.32105 | 47.23756 | 2440 ft | 94 kts | 137° |
| 2026-04-24 13:12 | 54.31754 | 47.24728 | 2442 ft | 95 kts | 127° |
| 2026-04-24 13:12 | 54.31411 | 47.25646 | 2443 ft | 92 kts | 130° |
| 2026-04-24 13:12 | 54.31039 | 47.26511 | 2438 ft | 89 kts | 134° |
| 2026-04-24 13:13 | 54.30671 | 47.27348 | 2444 ft | 88 kts | 134° |
| 2026-04-24 13:13 | 54.30303 | 47.28184 | 2440 ft | 87 kts | 134° |
| 2026-04-24 13:13 | 54.29935 | 47.29014 | 2439 ft | 88 kts | 134° |
| 2026-04-24 13:13 | 54.29565 | 47.29854 | 2444 ft | 89 kts | 134° |
| 2026-04-24 13:14 | 54.29189 | 47.30704 | 2441 ft | 89 kts | 134° |
| 2026-04-24 13:14 | 54.28813 | 47.31548 | 2440 ft | 88 kts | 134° |
| 2026-04-24 13:14 | 54.28447 | 47.32380 | 2443 ft | 87 kts | 134° |
| 2026-04-24 13:14 | 54.28081 | 47.33207 | 2439 ft | 87 kts | 134° |
| 2026-04-24 13:15 | 54.27710 | 47.34038 | 2439 ft | 89 kts | 133° |
| 2026-04-24 13:15 | 54.27328 | 47.34879 | 2440 ft | 90 kts | 134° |
| 2026-04-24 13:15 | 54.26947 | 47.35720 | 2437 ft | 88 kts | 134° |
| 2026-04-24 13:15 | 54.26571 | 47.36559 | 2439 ft | 90 kts | 130° |
| 2026-04-24 13:16 | 54.26462 | 47.37653 | 2444 ft | 100 kts | 94° |
| 2026-04-24 13:16 | 54.26571 | 47.38831 | 2439 ft | 102 kts | 88° |
| 2026-04-24 13:16 | 54.26868 | 47.39966 | 2441 ft | 103 kts | 81° |
| 2026-04-24 13:16 | 54.27114 | 47.41128 | 2440 ft | 105 kts | 83° |
| 2026-04-24 13:17 | 54.27321 | 47.42308 | 2440 ft | 103 kts | 88° |
| 2026-04-24 13:17 | 54.27499 | 47.43489 | 2440 ft | 103 kts | 88° |
| 2026-04-24 13:17 | 54.27678 | 47.44689 | 2450 ft | 106 kts | 87° |
| 2026-04-24 13:17 | 54.27854 | 47.45922 | 2443 ft | 106 kts | 88° |
| 2026-04-24 13:18 | 54.28038 | 47.47139 | 2444 ft | 105 kts | 88° |
| 2026-04-24 13:18 | 54.28223 | 47.48357 | 2445 ft | 107 kts | 88° |
| 2026-04-24 13:18 | 54.28409 | 47.49599 | 2443 ft | 108 kts | 88° |
| 2026-04-24 13:18 | 54.28592 | 47.50829 | 2444 ft | 106 kts | 88° |
| 2026-04-24 13:19 | 54.28777 | 47.52053 | 2446 ft | 106 kts | 88° |
| 2026-04-24 13:19 | 54.28953 | 47.53282 | 2443 ft | 106 kts | 88° |
| 2026-04-24 13:19 | 54.29127 | 47.54508 | 2449 ft | 105 kts | 88° |
| 2026-04-24 13:19 | 54.29303 | 47.55731 | 2453 ft | 106 kts | 88° |
| 2026-04-24 13:20 | 54.29414 | 47.56959 | 2442 ft | 101 kts | 98° |
| 2026-04-24 13:20 | 54.29430 | 47.58138 | 2446 ft | 98 kts | 99° |
| 2026-04-24 13:20 | 54.29439 | 47.59288 | 2450 ft | 99 kts | 99° |
| 2026-04-24 13:20 | 54.29448 | 47.60481 | 2445 ft | 99 kts | 100° |
| 2026-04-24 13:21 | 54.29464 | 47.61650 | 2448 ft | 100 kts | 99° |
| 2026-04-24 13:21 | 54.29480 | 47.62861 | 2450 ft | 100 kts | 100° |
| 2026-04-24 13:21 | 54.29497 | 47.64058 | 2447 ft | 100 kts | 99° |
| 2026-04-24 13:21 | 54.29515 | 47.65235 | 2451 ft | 100 kts | 100° |
| 2026-04-24 13:22 | 54.29532 | 47.66432 | 2455 ft | 101 kts | 99° |
| 2026-04-24 13:22 | 54.29547 | 47.67640 | 2452 ft | 102 kts | 100° |
| 2026-04-24 13:22 | 54.29563 | 47.68853 | 2456 ft | 103 kts | 100° |
| 2026-04-24 13:22 | 54.29580 | 47.70081 | 2452 ft | 103 kts | 100° |
| 2026-04-24 13:23 | 54.29597 | 47.71328 | 2454 ft | 104 kts | 100° |
| 2026-04-24 13:23 | 54.29619 | 47.72560 | 2453 ft | 104 kts | 100° |
| 2026-04-24 13:23 | 54.29637 | 47.73779 | 2459 ft | 104 kts | 100° |
| 2026-04-24 13:23 | 54.29648 | 47.75015 | 2455 ft | 104 kts | 99° |
| 2026-04-24 13:24 | 54.29660 | 47.76252 | 2459 ft | 105 kts | 100° |
| 2026-04-24 13:24 | 54.29674 | 47.77524 | 2462 ft | 108 kts | 99° |
| 2026-04-24 13:24 | 54.29642 | 47.78804 | 2463 ft | 107 kts | 105° |
| 2026-04-24 13:24 | 54.29589 | 47.80074 | 2462 ft | 107 kts | 105° |
| 2026-04-24 13:25 | 54.29538 | 47.81341 | 2460 ft | 107 kts | 105° |
| 2026-04-24 13:25 | 54.29485 | 47.82599 | 2459 ft | 105 kts | 105° |
| 2026-04-24 13:25 | 54.29428 | 47.83826 | 2460 ft | 103 kts | 105° |
| 2026-04-24 13:25 | 54.29405 | 47.85050 | 2459 ft | 105 kts | 95° |
| 2026-04-24 13:26 | 54.29484 | 47.86292 | 2460 ft | 104 kts | 97° |
| 2026-04-24 13:26 | 54.29541 | 47.87537 | 2461 ft | 106 kts | 97° |
| 2026-04-24 13:26 | 54.29596 | 47.88794 | 2460 ft | 106 kts | 97° |
| 2026-04-24 13:26 | 54.29611 | 47.90048 | 2459 ft | 101 kts | 114° |
| 2026-04-24 13:27 | 54.29207 | 47.90885 | 2466 ft | 90 kts | 159° |
| 2026-04-24 13:27 | 54.28599 | 47.91091 | 2472 ft | 89 kts | 169° |
| 2026-04-24 13:27 | 54.28015 | 47.91243 | 2610 ft | 82 kts | 169° |
| 2026-04-24 13:27 | 54.27476 | 47.91383 | 2841 ft | 75 kts | 169° |
| 2026-04-24 13:28 | 54.26970 | 47.91513 | 3067 ft | 72 kts | 169° |
| 2026-04-24 13:28 | 54.26490 | 47.91638 | 3294 ft | 68 kts | 169° |
| 2026-04-24 13:28 | 54.26031 | 47.91766 | 3470 ft | 71 kts | 169° |
| 2026-04-24 13:28 | 54.25500 | 47.91923 | 3468 ft | 80 kts | 170° |
| 2026-04-24 13:29 | 54.24943 | 47.92094 | 3471 ft | 83 kts | 170° |
| 2026-04-24 13:29 | 54.24373 | 47.92273 | 3472 ft | 84 kts | 170° |
| 2026-04-24 13:29 | 54.23792 | 47.92457 | 3472 ft | 85 kts | 170° |
| 2026-04-24 13:29 | 54.23204 | 47.92646 | 3474 ft | 87 kts | 170° |
| 2026-04-24 13:30 | 54.22810 | 47.92773 | 3475 ft | 87 kts | 170° |
| 2026-04-24 13:30 | 54.22052 | 47.92358 | 3477 ft | 94 kts | 212° |
| 2026-04-24 13:30 | 54.21568 | 47.91607 | 3473 ft | 95 kts | 213° |
| 2026-04-24 13:30 | 54.21081 | 47.90846 | 3472 ft | 95 kts | 213° |
| 2026-04-24 13:31 | 54.20590 | 47.90087 | 3473 ft | 95 kts | 213° |
| 2026-04-24 13:31 | 54.20098 | 47.89330 | 3469 ft | 95 kts | 213° |
| 2026-04-24 13:31 | 54.19607 | 47.88574 | 3471 ft | 95 kts | 213° |
| 2026-04-24 13:31 | 54.19117 | 47.87816 | 3481 ft | 95 kts | 213° |
| 2026-04-24 13:32 | 54.18634 | 47.87075 | 3464 ft | 92 kts | 213° |
| 2026-04-24 13:32 | 54.18161 | 47.86358 | 3463 ft | 90 kts | 213° |
| 2026-04-24 13:32 | 54.17699 | 47.85655 | 3469 ft | 88 kts | 212° |
| 2026-04-24 13:32 | 54.17244 | 47.84952 | 3463 ft | 89 kts | 212° |
| 2026-04-24 13:33 | 54.16936 | 47.84469 | 3473 ft | 88 kts | 211° |
| 2026-04-24 13:33 | 54.16314 | 47.84127 | 3680 ft | 73 kts | 157° |
| 2026-04-24 13:33 | 54.16066 | 47.84936 | 3851 ft | 92 kts | 103° |
| 2026-04-24 13:33 | 54.16439 | 47.85987 | 3987 ft | 119 kts | 42° |
| 2026-04-24 13:34 | 54.17251 | 47.86624 | 3910 ft | 138 kts | 4° |
| 2026-04-24 13:34 | 54.18028 | 47.85826 | 3765 ft | 124 kts | 283° |
| 2026-04-24 13:34 | 54.17865 | 47.84650 | 3572 ft | 102 kts | 205° |
| 2026-04-24 13:34 | 54.17286 | 47.85023 | 3388 ft | 111 kts | 123° |
| 2026-04-24 13:35 | 54.17731 | 47.86149 | 3281 ft | 140 kts | 11° |
| 2026-04-24 13:35 | 54.18267 | 47.85265 | 3174 ft | 107 kts | 237° |
| 2026-04-24 13:35 | 54.17900 | 47.85115 | 3086 ft | 97 kts | 147° |
| 2026-04-24 13:35 | 54.17432 | 47.86449 | 3206 ft | 85 kts | 122° |
| 2026-04-24 13:36 | 54.17312 | 47.87095 | 3233 ft | 90 kts | 109° |
| 2026-04-24 13:36 | 54.17613 | 47.88099 | 3313 ft | 111 kts | 50° |
| 2026-04-24 13:36 | 54.17800 | 47.89183 | 3269 ft | 91 kts | 133° |
| 2026-04-24 13:36 | 54.17283 | 47.89573 | 3329 ft | 84 kts | 165° |
| 2026-04-24 13:37 | 54.16692 | 47.89914 | 3230 ft | 95 kts | 162° |
| 2026-04-24 13:37 | 54.16056 | 47.90347 | 3186 ft | 96 kts | 159° |
| 2026-04-24 13:37 | 54.15446 | 47.90748 | 3184 ft | 94 kts | 173° |
| 2026-04-24 13:37 | 54.14874 | 47.91027 | 3337 ft | 84 kts | 172° |
| 2026-04-24 13:38 | 54.14780 | 47.90178 | 3289 ft | 133 kts | 333° |
| 2026-04-24 13:38 | 54.14918 | 47.90755 | 2947 ft | 112 kts | 220° |
| 2026-04-24 13:38 | 54.15090 | 47.89565 | 3290 ft | 105 kts | 280° |
| 2026-04-24 13:38 | 54.14908 | 47.88742 | 3358 ft | 73 kts | 178° |
| 2026-04-24 13:39 | 54.14819 | 47.89455 | 3258 ft | 127 kts | 26° |
| 2026-04-24 13:39 | 54.14941 | 47.88921 | 3024 ft | 96 kts | 142° |
| 2026-04-24 13:39 | 54.14505 | 47.89768 | 3111 ft | 94 kts | 133° |
| 2026-04-24 13:39 | 54.14472 | 47.90779 | 3350 ft | 109 kts | 57° |
| 2026-04-24 13:40 | 54.15307 | 47.90894 | 3255 ft | 142 kts | 334° |
| 2026-04-24 13:40 | 54.16191 | 47.89981 | 3102 ft | 150 kts | 321° |
| 2026-04-24 13:40 | 54.16977 | 47.88906 | 3190 ft | 135 kts | 312° |
| 2026-04-24 13:40 | 54.17606 | 47.87875 | 3391 ft | 125 kts | 303° |
| 2026-04-24 13:41 | 54.18175 | 47.86879 | 3588 ft | 123 kts | 341° |
| 2026-04-24 13:41 | 54.18298 | 47.87088 | 3424 ft | 109 kts | 299° |
| 2026-04-24 13:41 | 54.18910 | 47.86161 | 3483 ft | 122 kts | 312° |
| 2026-04-24 13:41 | 54.19159 | 47.85046 | 3591 ft | 95 kts | 234° |
| 2026-04-24 13:42 | 54.18611 | 47.84735 | 3529 ft | 96 kts | 160° |
| 2026-04-24 13:42 | 54.18075 | 47.85187 | 3598 ft | 60 kts | 160° |
| 2026-04-24 13:42 | 54.17821 | 47.85528 | 3404 ft | 64 kts | 140° |
| 2026-04-24 13:42 | 54.17527 | 47.86205 | 3536 ft | 65 kts | 135° |
| 2026-04-24 13:43 | 54.17358 | 47.86805 | 3675 ft | 50 kts | 130° |
| 2026-04-24 13:43 | 54.17275 | 47.87359 | 3523 ft | 57 kts | 105° |
| 2026-04-24 13:43 | 54.17340 | 47.88067 | 3521 ft | 71 kts | 96° |
| 2026-04-24 13:43 | 54.17478 | 47.88974 | 3514 ft | 91 kts | 88° |
| 2026-04-24 13:44 | 54.17695 | 47.89984 | 3663 ft | 93 kts | 80° |
| 2026-04-24 13:44 | 54.17683 | 47.90962 | 3678 ft | 81 kts | 139° |
| 2026-04-24 13:44 | 54.17222 | 47.91328 | 3836 ft | 71 kts | 171° |
| 2026-04-24 13:44 | 54.16732 | 47.91533 | 3909 ft | 77 kts | 166° |
| 2026-04-24 13:45 | 54.16175 | 47.91844 | 3845 ft | 91 kts | 163° |
| 2026-04-24 13:45 | 54.15559 | 47.92250 | 3683 ft | 100 kts | 162° |
| 2026-04-24 13:45 | 54.14934 | 47.92695 | 3679 ft | 93 kts | 161° |
| 2026-04-24 13:45 | 54.14369 | 47.93166 | 3740 ft | 85 kts | 155° |
| 2026-04-24 13:46 | 54.14170 | 47.94070 | 3815 ft | 111 kts | 81° |
| 2026-04-24 13:46 | 54.14872 | 47.94976 | 3630 ft | 144 kts | 30° |
| 2026-04-24 13:46 | 54.15802 | 47.95639 | 3496 ft | 142 kts | 28° |
| 2026-04-24 13:46 | 54.16760 | 47.95929 | 3430 ft | 139 kts | 2° |
| 2026-04-24 13:47 | 54.17625 | 47.95509 | 3468 ft | 122 kts | 309° |
| 2026-04-24 13:47 | 54.17899 | 47.94311 | 3473 ft | 100 kts | 258° |
| 2026-04-24 13:47 | 54.17720 | 47.93260 | 3419 ft | 91 kts | 229° |
| 2026-04-24 13:47 | 54.17387 | 47.92324 | 3376 ft | 91 kts | 223° |
| 2026-04-24 13:48 | 54.17032 | 47.91405 | 3337 ft | 94 kts | 225° |
| 2026-04-24 13:48 | 54.16675 | 47.90450 | 3290 ft | 96 kts | 227° |
| 2026-04-24 13:48 | 54.16439 | 47.89387 | 3334 ft | 98 kts | 247° |
| 2026-04-24 13:48 | 54.16553 | 47.88199 | 3423 ft | 106 kts | 282° |
| 2026-04-24 13:49 | 54.16964 | 47.87099 | 3442 ft | 112 kts | 294° |
| 2026-04-24 13:49 | 54.17386 | 47.85996 | 3472 ft | 110 kts | 290° |
| 2026-04-24 13:49 | 54.18015 | 47.85133 | 3374 ft | 126 kts | 341° |
| 2026-04-24 13:49 | 54.18907 | 47.85187 | 3210 ft | 130 kts | 29° |
| 2026-04-24 13:50 | 54.19122 | 47.86289 | 3126 ft | 91 kts | 138° |
| 2026-04-24 13:50 | 54.18574 | 47.86503 | 3192 ft | 78 kts | 174° |
| 2026-04-24 13:50 | 54.18007 | 47.86627 | 3067 ft | 87 kts | 170° |
| 2026-04-24 13:50 | 54.17385 | 47.86844 | 2952 ft | 90 kts | 168° |
| 2026-04-24 13:51 | 54.16816 | 47.87078 | 3051 ft | 75 kts | 165° |
| 2026-04-24 13:51 | 54.16355 | 47.87365 | 3198 ft | 71 kts | 160° |
| 2026-04-24 13:51 | 54.15903 | 47.87718 | 3317 ft | 73 kts | 154° |
| 2026-04-24 13:51 | 54.15882 | 47.88638 | 3382 ft | 109 kts | 63° |
| 2026-04-24 13:52 | 54.16641 | 47.89114 | 3469 ft | 124 kts | 356° |
| 2026-04-24 13:52 | 54.17356 | 47.88409 | 3461 ft | 125 kts | 295° |
| 2026-04-24 13:52 | 54.17587 | 47.87000 | 3361 ft | 123 kts | 253° |
| 2026-04-24 13:52 | 54.17116 | 47.86171 | 3423 ft | 98 kts | 174° |
| 2026-04-24 13:53 | 54.16798 | 47.87213 | 3377 ft | 128 kts | 84° |
| 2026-04-24 13:53 | 54.17564 | 47.88068 | 3300 ft | 157 kts | 358° |
| 2026-04-24 13:53 | 54.18518 | 47.87332 | 2943 ft | 141 kts | 311° |
| 2026-04-24 13:53 | 54.18794 | 47.86062 | 2935 ft | 100 kts | 244° |
| 2026-04-24 13:54 | 54.18341 | 47.85408 | 2858 ft | 87 kts | 178° |
| 2026-04-24 13:54 | 54.17820 | 47.85786 | 2933 ft | 77 kts | 149° |
| 2026-04-24 13:54 | 54.17389 | 47.86317 | 3017 ft | 74 kts | 149° |
| 2026-04-24 13:54 | 54.16978 | 47.86846 | 3121 ft | 75 kts | 150° |
| 2026-04-24 13:55 | 54.16557 | 47.87349 | 3277 ft | 77 kts | 132° |
| 2026-04-24 13:55 | 54.16629 | 47.88404 | 3376 ft | 105 kts | 68° |
| 2026-04-24 13:55 | 54.17108 | 47.89456 | 3414 ft | 117 kts | 62° |
| 2026-04-24 13:55 | 54.17674 | 47.90526 | 3393 ft | 128 kts | 56° |
| 2026-04-24 13:56 | 54.18337 | 47.91600 | 3388 ft | 133 kts | 51° |
| 2026-04-24 13:56 | 54.19041 | 47.92662 | 3308 ft | 140 kts | 51° |
| 2026-04-24 13:56 | 54.19787 | 47.93769 | 3066 ft | 144 kts | 51° |
| 2026-04-24 13:56 | 54.20522 | 47.94929 | 2797 ft | 143 kts | 52° |
| 2026-04-24 13:57 | 54.21263 | 47.96066 | 2510 ft | 144 kts | 50° |
| 2026-04-24 13:57 | 54.22033 | 47.97154 | 2257 ft | 143 kts | 43° |
| 2026-04-24 13:57 | 54.22894 | 47.97907 | 1908 ft | 141 kts | 28° |
| 2026-04-24 13:57 | 54.23784 | 47.98490 | 1798 ft | 134 kts | 27° |
| 2026-04-24 13:58 | 54.24596 | 47.99070 | 1813 ft | 117 kts | 34° |
| 2026-04-24 13:58 | 54.25259 | 47.99748 | 1906 ft | 107 kts | 44° |
| 2026-04-24 13:58 | 54.25794 | 48.00562 | 1929 ft | 101 kts | 56° |
| 2026-04-24 13:58 | 54.26260 | 48.01442 | 1930 ft | 99 kts | 61° |
| 2026-04-24 13:59 | 54.26689 | 48.02374 | 1915 ft | 99 kts | 65° |
| 2026-04-24 13:59 | 54.27097 | 48.03286 | 1928 ft | 95 kts | 65° |
| 2026-04-24 13:59 | 54.27517 | 48.04214 | 1903 ft | 103 kts | 65° |
| 2026-04-24 13:59 | 54.27919 | 48.05218 | 1958 ft | 103 kts | 66° |
| 2026-04-24 14:00 | 54.28342 | 48.06213 | 2016 ft | 103 kts | 69° |
| 2026-04-24 14:00 | 54.28632 | 48.07295 | 2056 ft | 102 kts | 77° |
| 2026-04-24 14:00 | 54.28945 | 48.08441 | 2041 ft | 111 kts | 78° |
| 2026-04-24 14:00 | 54.29266 | 48.09675 | 2050 ft | 116 kts | 77° |
| 2026-04-24 14:01 | 54.29586 | 48.10971 | 2018 ft | 121 kts | 79° |
| 2026-04-24 14:01 | 54.29893 | 48.12328 | 1964 ft | 122 kts | 80° |
| 2026-04-24 14:01 | 54.30183 | 48.13706 | 1906 ft | 124 kts | 81° |
| 2026-04-24 14:01 | 54.30476 | 48.15080 | 1842 ft | 122 kts | 82° |
| 2026-04-24 14:02 | 54.30754 | 48.16451 | 1746 ft | 123 kts | 81° |
| 2026-04-24 14:02 | 54.31036 | 48.17847 | 1532 ft | 122 kts | 83° |
| 2026-04-24 14:02 | 54.31315 | 48.19102 | 1386 ft | 105 kts | 76° |
| 2026-04-24 14:02 | 54.31619 | 48.20119 | 1388 ft | 90 kts | 74° |
| 2026-04-24 14:03 | 54.31925 | 48.21037 | 1346 ft | 89 kts | 71° |
| 2026-04-24 14:03 | 54.32260 | 48.21936 | 1366 ft | 89 kts | 68° |
| 2026-04-24 14:03 | 54.32531 | 48.22849 | 1403 ft | 81 kts | 93° |
| 2026-04-24 14:03 | 54.32363 | 48.23685 | 1400 ft | 74 kts | 130° |
| 2026-04-24 14:04 | 54.32074 | 48.24377 | 1472 ft | 69 kts | 135° |
| 2026-04-24 14:04 | 54.31771 | 48.25026 | 1498 ft | 70 kts | 137° |
| 2026-04-24 14:04 | 54.31435 | 48.25654 | 1447 ft | 75 kts | 149° |
| 2026-04-24 14:04 | 54.30935 | 48.25942 | 1289 ft | 81 kts | 168° |
| 2026-04-24 14:05 | 54.30379 | 48.25960 | 1101 ft | 72 kts | 183° |
| 2026-04-24 14:05 | 54.29944 | 48.25686 | 857 ft | 66 kts | 196° |
| 2026-04-24 14:05 | 54.29527 | 48.25284 | 723 ft | 71 kts | 207° |
| 2026-04-24 14:05 | 54.29121 | 48.24819 | 659 ft | 71 kts | 204° |
| 2026-04-24 14:06 | 54.28692 | 48.24364 | 547 ft | 75 kts | 204° |
| 2026-04-24 14:06 | 54.28239 | 48.23878 | 428 ft | 79 kts | 206° |
| 2026-04-24 14:06 | 54.27827 | 48.23429 | 400 ft | 55 kts | 205° |
| 2026-04-24 14:06 | 54.27584 | 48.23169 | 402 ft | 32 kts | 213° |
| 2026-04-24 14:07 | 54.27424 | 48.22996 | 401 ft | 23 kts | 212° |
| 2026-04-24 14:07 | 54.27268 | 48.22830 | 399 ft | 29 kts | 212° |
| 2026-04-24 14:07 | 54.27141 | 48.22730 | 399 ft | 14 kts | 169° |
| 2026-04-24 14:07 | 54.27058 | 48.22762 | 399 ft | 10 kts | 166° |
| 2026-04-24 14:08 | 54.27003 | 48.22784 | 399 ft | 1 kts | 166° |
| 2026-04-24 14:09 | 54.26988 | 48.22790 | 399 ft | 5 kts | 167° |
| 2026-04-24 14:09 | 54.26936 | 48.22812 | 399 ft | 8 kts | 155° |
| 2026-04-24 14:09 | 54.26921 | 48.22883 | 399 ft | 6 kts | 57° |
| 2026-04-24 14:09 | 54.26962 | 48.22935 | 399 ft | 10 kts | 32° |
| 2026-04-24 14:10 | 54.27000 | 48.22975 | 399 ft | 5 kts | 32° |
| 2026-04-24 14:10 | 54.27023 | 48.23037 | 399 ft | 6 kts | 101° |
| 2026-04-24 14:10 | 54.26997 | 48.23113 | 399 ft | 9 kts | 121° |
| 2026-04-24 14:10 | 54.26961 | 48.23212 | 399 ft | 10 kts | 122° |
| 2026-04-24 14:11 | 54.26977 | 48.23287 | 399 ft | 9 kts | 32° |
| 2026-04-24 14:11 | 54.27041 | 48.23354 | 399 ft | 13 kts | 32° |
| 2026-04-24 14:11 | 54.27176 | 48.23499 | 399 ft | 7 kts | 32° |
| 2026-04-24 14:12 | 54.27216 | 48.23542 | 399 ft | 6 kts | 32° |
| 2026-04-24 14:12 | 54.27233 | 48.23571 | 399 ft | 2 kts | 92° |
| 2026-04-24 14:12 | 54.27227 | 48.23589 | 399 ft | 0 kts | 124° |
| 2026-04-24 14:12 | 54.27227 | 48.23591 | 399 ft | 0 kts | 123° |